Time;durP1;ratioP1;P1;durP2;ratioP2;P2;SDS_P1;SDS_P2;PMS_P1;PMS_P2;Temp;Humidity;BMP_temperature;BMP_pressure;BME280_temperature;BME280_humidity;BME280_pressure;Samples;Min_cycle;Max_cycle;Signal;HPM_P1;HPM_P2
2022/11/25 00:00:10;;;;;;;3.43;2.20;;;;;;;5.70;100.00;94228.19;5072649;28;20204;-58
2022/11/25 00:02:35;;;;;;;2.87;1.83;;;;;;;5.71;100.00;94244.94;5054114;28;20220;-62
2022/11/25 00:05:00;;;;;;;2.63;1.60;;;;;;;5.65;100.00;94237.81;5072405;28;20215;-62
2022/11/25 00:07:26;;;;;;;2.77;1.80;;;;;;;5.66;100.00;94249.50;5072187;28;20226;-63
2022/11/25 00:09:51;;;;;;;2.43;1.77;;;;;;;5.63;100.00;94249.72;5071942;28;20572;-59
2022/11/25 00:12:16;;;;;;;1.83;1.73;;;;;;;5.64;100.00;94244.56;5072311;28;20267;-63
2022/11/25 00:14:42;;;;;;;2.20;1.90;;;;;;;5.67;100.00;94244.34;5072452;28;20223;-63
2022/11/25 00:17:07;;;;;;;2.07;1.33;;;;;;;5.64;100.00;94244.56;5071936;28;20221;-62
2022/11/25 00:19:33;;;;;;;2.30;1.60;;;;;;;5.65;100.00;94258.78;5053802;28;20349;-63
2022/11/25 00:21:58;;;;;;;3.27;1.97;;;;;;;5.64;100.00;94248.78;5071953;28;20208;-60
2022/11/25 00:24:24;;;;;;;1.83;1.60;;;;;;;5.66;100.00;94262.09;5053972;28;20237;-63
2022/11/25 00:26:49;;;;;;;1.93;1.73;;;;;;;5.68;100.00;94263.59;5071357;28;20261;-62
2022/11/25 00:29:14;;;;;;;4.30;1.93;;;;;;;5.69;100.00;94282.06;5071681;28;20603;-60
2022/11/25 00:31:40;;;;;;;2.03;1.83;;;;;;;5.66;100.00;94287.31;5053842;28;20202;-62
2022/11/25 00:34:09;;;;;;;2.10;1.53;;;;;;;5.64;100.00;94274.00;5071764;28;20231;-62
2022/11/25 00:36:36;;;;;;;1.80;1.70;;;;;;;5.60;100.00;94263.34;5053807;28;20369;-58
2022/11/25 00:39:23;;;;;;;2.47;2.13;;;;;;;5.58;100.00;94260.13;5071863;28;20652;-59
2022/11/25 00:44:35;;;;;;;4.07;2.30;;;;;;;5.57;100.00;94240.91;5071874;28;20658;-60
2022/11/25 00:47:12;;;;;;;3.30;2.90;;;;;;;5.55;100.00;94231.81;5070396;28;20597;-61
2022/11/25 00:49:40;;;;;;;4.13;2.37;;;;;;;5.54;100.00;94230.22;5071705;28;20593;-59
2022/11/25 00:52:05;;;;;;;2.63;2.30;;;;;;;5.53;100.00;94213.50;5053525;28;20191;-62
2022/11/25 00:54:31;;;;;;;3.53;2.47;;;;;;;5.60;100.00;94220.50;5070117;28;20254;-62
2022/11/25 00:56:57;;;;;;;3.87;2.33;;;;;;;5.60;100.00;94220.50;5071294;28;20269;-60
2022/11/25 00:59:23;;;;;;;2.80;2.50;;;;;;;5.54;100.00;94225.97;5071341;28;20239;-59
2022/11/25 01:01:48;;;;;;;3.40;2.60;;;;;;;5.56;100.00;94218.28;5071327;28;20285;-62
2022/11/25 01:04:14;;;;;;;6.83;2.40;;;;;;;5.55;100.00;94241.91;5071152;28;20216;-63
2022/11/25 01:06:41;;;;;;;2.27;2.00;;;;;;;5.53;100.00;94234.47;5071227;28;20191;-62
2022/11/25 01:09:08;;;;;;;5.43;2.40;;;;;;;5.52;100.00;94232.84;5070097;28;20211;-61
2022/11/25 01:11:34;;;;;;;2.70;2.00;;;;;;;5.51;100.00;94225.41;5071217;28;20202;-59
2022/11/25 01:13:59;;;;;;;5.43;2.40;;;;;;;5.51;100.00;94227.91;5053112;28;20537;-60
2022/11/25 01:16:25;;;;;;;5.20;2.67;;;;;;;5.55;100.00;94231.81;5071145;28;20191;-63
2022/11/25 01:18:51;;;;;;;2.30;2.00;;;;;;;5.50;100.00;94228.81;5053006;28;20687;-62
2022/11/25 01:21:23;;;;;;;4.10;2.50;;;;;;;5.53;100.00;94234.47;5070957;28;20202;-60
2022/11/25 01:23:49;;;;;;;3.23;2.33;;;;;;;5.54;100.00;94227.69;5071268;28;20242;-62
2022/11/25 01:26:18;;;;;;;3.43;2.03;;;;;;;5.53;100.00;94221.88;5071201;28;20195;-63
2022/11/25 01:28:44;;;;;;;3.50;2.30;;;;;;;5.55;100.00;94239.38;5071012;28;20274;-63
2022/11/25 01:31:13;;;;;;;2.50;2.13;;;;;;;5.53;100.00;94234.47;5070936;28;20291;-62
2022/11/25 01:33:40;;;;;;;4.03;2.87;;;;;;;5.59;100.00;94240.78;5070855;28;20199;-62
2022/11/25 01:36:16;;;;;;;2.10;1.80;;;;;;;5.60;100.00;94250.75;5070715;28;20306;-62
2022/11/25 01:38:44;;;;;;;2.80;1.90;;;;;;;5.50;100.00;94228.81;5059008;23;20261;-62
2022/11/25 01:41:12;;;;;;;2.40;2.03;;;;;;;5.57;100.00;94242.59;5070128;28;20212;-62
2022/11/25 01:43:38;;;;;;;2.97;2.00;;;;;;;5.59;100.00;94244.09;5070605;28;20604;-63
2022/11/25 01:46:09;;;;;;;3.80;2.10;;;;;;;5.62;100.00;94238.84;5070788;28;20209;-61
2022/11/25 01:48:58;;;;;;;1.93;1.60;;;;;;;5.69;100.00;94246.75;5052911;28;20227;-61
2022/11/25 01:51:51;;;;;;;3.37;1.90;;;;;;;5.70;100.00;94258.44;5070917;28;20197;-63
2022/11/25 01:54:21;;;;;;;2.37;2.00;;;;;;;5.70;100.00;94248.34;5070805;28;20219;-62
2022/11/25 01:56:59;;;;;;;2.13;1.90;;;;;;;5.66;100.00;94260.38;5070676;28;20206;-59
2022/11/25 01:59:26;;;;;;;1.53;1.40;;;;;;;5.73;100.00;94265.78;5070749;28;20219;-62
2022/11/25 02:01:52;;;;;;;1.80;1.60;;;;;;;5.72;100.00;94280.13;5070501;28;20234;-63
2022/11/25 02:04:20;;;;;;;1.63;1.43;;;;;;;5.74;100.00;94280.81;5052346;28;20272;-62
2022/11/25 02:06:57;;;;;;;2.63;2.00;;;;;;;5.79;100.00;94290.56;5052213;28;20200;-62
2022/11/25 02:09:24;;;;;;;1.70;1.50;;;;;;;5.83;100.00;94300.38;5070493;28;20253;-59
2022/11/25 02:11:50;;;;;;;1.87;1.50;;;;;;;5.84;100.00;94332.22;5070301;28;20192;-60
2022/11/25 02:14:18;;;;;;;2.70;1.87;;;;;;;5.84;100.00;94341.50;5070600;28;20251;-60
2022/11/25 02:16:43;;;;;;;2.17;1.30;;;;;;;5.85;100.00;94343.94;5070293;28;20745;-62
2022/11/25 02:19:21;;;;;;;1.50;1.40;;;;;;;5.90;100.00;94341.06;5070407;28;20312;-62
2022/11/25 02:21:51;;;;;;;1.30;1.20;;;;;;;5.91;100.00;94342.69;5070130;28;20254;-62
2022/11/25 02:24:38;;;;;;;2.20;1.33;;;;;;;5.88;100.00;94356.31;5070350;28;20259;-60
2022/11/25 02:27:04;;;;;;;1.53;1.43;;;;;;;5.89;100.00;94352.09;5070136;28;20188;-62
2022/11/25 02:29:31;;;;;;;1.33;1.23;;;;;;;5.85;100.00;94360.78;5052022;28;20208;-61
2022/11/25 02:31:56;;;;;;;1.83;1.33;;;;;;;5.86;100.00;94362.38;5052063;28;20257;-63
2022/11/25 02:34:22;;;;;;;1.70;1.27;;;;;;;5.81;100.00;94365.22;5070037;28;20333;-62
2022/11/25 02:36:48;;;;;;;1.30;1.13;;;;;;;5.80;100.00;94372.88;5070085;28;20200;-63
2022/11/25 02:39:14;;;;;;;1.10;1.00;;;;;;;5.82;100.00;94383.66;5070380;28;20254;-60
2022/11/25 02:41:45;;;;;;;1.63;1.23;;;;;;;5.80;100.00;94380.44;5069969;28;20408;-62
2022/11/25 02:44:10;;;;;;;1.63;1.53;;;;;;;5.79;100.00;94384.69;5070267;28;20223;-63
2022/11/25 02:46:36;;;;;;;1.30;1.20;;;;;;;5.80;100.00;94376.19;5069926;28;20223;-58
2022/11/25 02:49:01;;;;;;;2.63;1.60;;;;;;;5.80;100.00;94373.69;5070251;28;20216;-60
2022/11/25 02:51:29;;;;;;;2.37;1.40;;;;;;;5.79;100.00;94381.34;5055488;28;20192;-62
2022/11/25 02:53:58;;;;;;;2.43;1.30;;;;;;;5.80;100.00;94385.47;5073568;28;20275;-62
2022/11/25 02:56:27;;;;;;;1.83;1.20;;;;;;;5.80;100.00;94388.00;5073297;28;20555;-62
2022/11/25 02:58:52;;;;;;;2.97;1.40;;;;;;;5.76;100.00;94394.97;5073523;28;20596;-61
2022/11/25 03:01:18;;;;;;;2.40;1.63;;;;;;;5.72;100.00;94375.13;5073154;28;20208;-59
2022/11/25 03:03:44;;;;;;;1.50;1.40;;;;;;;5.67;100.00;94364.56;5073380;28;20349;-58
2022/11/25 03:06:09;;;;;;;1.73;1.53;;;;;;;5.74;100.00;94363.22;5055156;28;20209;-62
2022/11/25 03:08:35;;;;;;;1.40;1.30;;;;;;;5.71;100.00;94350.84;5073352;28;20196;-61
2022/11/25 03:11:01;;;;;;;2.53;1.93;;;;;;;5.70;100.00;94336.59;5072997;28;20211;-60
2022/11/25 03:13:27;;;;;;;3.40;1.60;;;;;;;5.73;100.00;94349.00;5073211;28;20195;-63
2022/11/25 03:15:52;;;;;;;2.27;1.60;;;;;;;5.65;100.00;94333.63;5055143;28;20218;-59
2022/11/25 03:18:18;;;;;;;1.83;1.70;;;;;;;5.61;100.00;94334.75;5073224;28;20277;-62
2022/11/25 03:20:43;;;;;;;2.00;1.80;;;;;;;5.66;100.00;94325.13;5054833;28;20609;-63
2022/11/25 03:23:09;;;;;;;4.07;1.50;;;;;;;5.61;100.00;94317.09;5073251;28;20216;-59
2022/11/25 03:25:35;;;;;;;2.47;1.70;;;;;;;5.66;100.00;94310.81;5072823;28;20211;-63
2022/11/25 03:28:00;;;;;;;1.80;1.30;;;;;;;5.68;100.00;94330.88;5073061;28;20536;-64
2022/11/25 03:30:27;;;;;;;2.10;1.37;;;;;;;5.64;100.00;94322.72;5072771;28;20218;-63
2022/11/25 03:32:53;;;;;;;2.57;1.47;;;;;;;5.69;100.00;94319.88;5054796;28;20209;-63
2022/11/25 03:35:19;;;;;;;1.57;1.47;;;;;;;5.64;100.00;94312.63;5072651;28;20211;-60
2022/11/25 03:37:44;;;;;;;2.77;1.97;;;;;;;5.60;100.00;94305.41;5072895;28;20550;-62
2022/11/25 03:40:11;;;;;;;2.70;1.83;;;;;;;5.54;100.00;94280.63;5072559;28;20322;-63
2022/11/25 03:42:37;;;;;;;3.33;2.20;;;;;;;5.48;100.00;94266.75;5072783;28;20234;-62
2022/11/25 03:45:04;;;;;;;3.90;1.87;;;;;;;5.48;100.00;94263.41;5072434;28;20212;-59
2022/11/25 03:47:30;;;;;;;3.03;1.57;;;;;;;5.46;100.00;94255.16;5072421;28;20279;-63
2022/11/25 03:49:55;;;;;;;2.10;1.73;;;;;;;5.45;100.00;94261.94;5072226;28;20296;-63
2022/11/25 03:52:21;;;;;;;2.37;2.17;;;;;;;5.41;100.00;94237.88;5054510;28;20317;-62
2022/11/25 03:54:46;;;;;;;2.97;2.13;;;;;;;5.39;100.00;94242.22;5072304;28;20215;-63
2022/11/25 03:57:12;;;;;;;2.40;1.70;;;;;;;5.37;100.00;94239.00;5072179;28;20239;-63
2022/11/25 03:59:37;;;;;;;3.60;2.10;;;;;;;5.35;100.00;94234.97;5072254;28;21331;-62
2022/11/25 04:02:02;;;;;;;1.83;1.63;;;;;;;5.34;100.00;94238.38;5070199;28;20269;-63
2022/11/25 04:04:28;;;;;;;2.73;1.80;;;;;;;5.35;100.00;94245.88;5072207;28;20269;-59
2022/11/25 04:06:53;;;;;;;2.43;1.80;;;;;;;5.27;100.00;94237.22;5072389;28;20214;-59
2022/11/25 04:09:19;;;;;;;2.03;1.80;;;;;;;5.28;100.00;94243.88;5072317;28;20219;-63
2022/11/25 04:14:29;;;;;;;2.87;1.53;;;;;;;5.21;100.00;94245.22;5071880;28;20251;-63
2022/11/25 04:16:54;;;;;;;1.83;1.60;;;;;;;5.18;100.00;94246.25;5072188;28;20267;-60
2022/11/25 04:19:20;;;;;;;2.10;1.77;;;;;;;5.20;100.00;94246.13;5072108;28;20294;-62
2022/11/25 04:21:45;;;;;;;1.40;1.30;;;;;;;5.19;100.00;94264.69;5053909;28;20216;-61
2022/11/25 04:24:11;;;;;;;4.17;1.30;;;;;;;5.23;100.00;94271.13;5071832;28;20275;-62
2022/11/25 04:26:36;;;;;;;3.53;1.40;;;;;;;5.23;100.00;94279.47;5071917;28;20538;-60
2022/11/25 04:29:20;;;;;;;1.50;1.40;;;;;;;5.24;100.00;94296.19;5071933;28;20262;-63
2022/11/25 04:31:46;;;;;;;1.50;1.30;;;;;;;5.22;100.00;94299.72;5053937;28;20208;-63
2022/11/25 04:34:11;;;;;;;1.17;1.10;;;;;;;5.23;100.00;94301.34;5072116;28;20210;-61
2022/11/25 04:36:37;;;;;;;2.30;1.67;;;;;;;5.24;100.00;94308.78;5053734;28;20194;-64
2022/11/25 04:39:03;;;;;;;1.47;1.37;;;;;;;5.22;100.00;94292.16;5071801;28;20223;-63
2022/11/25 04:41:28;;;;;;;1.57;1.47;;;;;;;5.19;100.00;94313.34;5071507;28;20691;-62
2022/11/25 04:43:53;;;;;;;1.53;1.33;;;;;;;5.17;100.00;94316.88;5071541;28;20251;-62
2022/11/25 04:46:22;;;;;;;1.50;1.40;;;;;;;5.19;100.00;94315.06;5071556;28;20271;-64
2022/11/25 04:48:48;;;;;;;1.43;1.33;;;;;;;5.17;100.00;94324.44;5071970;28;20207;-63
2022/11/25 04:51:13;;;;;;;1.97;1.60;;;;;;;5.23;100.00;94329.06;5071438;28;20193;-63
2022/11/25 04:53:39;;;;;;;2.17;1.50;;;;;;;5.24;100.00;94330.66;5071777;28;20688;-64
2022/11/25 04:56:05;;;;;;;1.50;1.40;;;;;;;5.17;100.00;94332.00;5071410;28;20253;-60
2022/11/25 05:01:14;;;;;;;1.70;1.60;;;;;;;5.16;100.00;94345.50;5071266;28;20222;-63
2022/11/25 05:03:39;;;;;;;1.27;1.10;;;;;;;5.15;100.00;94342.19;5071200;28;20627;-63
2022/11/25 05:06:08;;;;;;;2.03;1.70;;;;;;;5.16;100.00;94345.50;5071210;28;20218;-62
2022/11/25 05:08:34;;;;;;;1.70;1.60;;;;;;;5.18;100.00;94352.03;5071007;28;20279;-64
2022/11/25 05:11:00;;;;;;;1.73;1.43;;;;;;;5.15;100.00;94349.75;5078290;22;20632;-60
2022/11/25 05:13:25;;;;;;;2.03;1.83;;;;;;;5.16;100.00;94351.34;5070969;28;20207;-63
2022/11/25 05:15:51;;;;;;;2.10;1.90;;;;;;;5.09;100.00;94361.03;5071023;28;20251;-63
2022/11/25 05:18:16;;;;;;;3.97;1.27;;;;;;;5.10;100.00;94374.44;5070930;28;20204;-64
2022/11/25 05:20:42;;;;;;;2.57;1.27;;;;;;;5.10;100.00;94382.81;5070827;28;20197;-64
2022/11/25 05:23:08;;;;;;;1.30;1.20;;;;;;;5.06;100.00;94383.91;5071011;28;20538;-64
2022/11/25 05:25:34;;;;;;;1.53;1.43;;;;;;;5.06;100.00;94381.41;5070944;28;20319;-59
2022/11/25 05:28:00;;;;;;;1.57;1.23;;;;;;;5.10;100.00;94397.09;5070857;28;20188;-61
2022/11/25 05:30:25;;;;;;;1.60;1.50;;;;;;;5.15;100.00;94401.84;5070840;28;20608;-60
2022/11/25 05:32:51;;;;;;;1.57;1.30;;;;;;;5.12;100.00;94407.88;5078253;22;20192;-64
2022/11/25 05:35:17;;;;;;;3.03;1.40;;;;;;;5.16;100.00;94429.44;5050377;28;20217;-62
2022/11/25 05:37:43;;;;;;;1.27;1.27;;;;;;;5.19;100.00;94444.38;5050982;28;20212;-62
2022/11/25 05:40:09;;;;;;;2.17;1.80;;;;;;;5.22;100.00;94459.25;5050636;28;20223;-63
2022/11/25 05:42:34;;;;;;;1.30;1.20;;;;;;;5.27;100.00;94464.00;5050799;28;20226;-63
2022/11/25 05:45:01;;;;;;;2.40;1.37;;;;;;;5.25;100.00;94473.38;5049364;28;20300;-62
2022/11/25 05:47:26;;;;;;;1.33;1.20;;;;;;;5.31;100.00;94480.53;5050846;28;20286;-62
2022/11/25 05:49:52;;;;;;;1.50;1.30;;;;;;;5.32;100.00;94482.94;5050747;28;20250;-63
2022/11/25 05:52:17;;;;;;;1.53;1.40;;;;;;;5.36;100.00;94507.03;5050603;28;20266;-62
2022/11/25 05:54:43;;;;;;;1.10;1.00;;;;;;;5.35;100.00;94505.44;5050538;28;20209;-63
2022/11/25 05:57:08;;;;;;;6.53;2.17;;;;;;;5.38;100.00;94501.88;5050505;28;20186;-62
2022/11/25 05:59:33;;;;;;;10.23;1.97;;;;;;;5.43;100.00;94520.03;5049216;28;20210;-64
2022/11/25 06:01:59;;;;;;;1.60;1.40;;;;;;;5.47;100.00;94519.72;5050157;28;20220;-66
2022/11/25 06:04:24;;;;;;;3.90;2.23;;;;;;;5.66;100.00;94398.25;5050168;28;20719;-62
2022/11/25 06:06:50;;;;;;;1.73;1.33;;;;;;;5.57;100.00;94566.09;5049919;28;20732;-62
2022/11/25 06:09:15;;;;;;;1.43;1.33;;;;;;;5.55;100.00;94565.41;5050013;28;20219;-62
2022/11/25 06:11:41;;;;;;;1.40;1.10;;;;;;;5.52;100.00;94565.59;5050301;28;20192;-59
2022/11/25 06:14:13;;;;;;;1.50;1.40;;;;;;;5.56;100.00;94572.03;5049017;28;20227;-60
2022/11/25 06:16:39;;;;;;;1.37;1.27;;;;;;;5.60;100.00;94582.72;5048985;28;20321;-59
2022/11/25 06:19:05;;;;;;;2.67;1.87;;;;;;;5.61;100.00;94592.72;5050295;28;20221;-59
2022/11/25 06:21:31;;;;;;;1.43;1.33;;;;;;;5.57;100.00;94600.56;5050189;28;20699;-63
2022/11/25 06:23:57;;;;;;;2.90;2.03;;;;;;;5.62;100.00;94591.78;5050301;28;20229;-60
2022/11/25 06:26:23;;;;;;;1.70;1.50;;;;;;;5.65;100.00;94596.66;5053684;28;20193;-61
2022/11/25 06:28:52;;;;;;;3.47;2.27;;;;;;;5.69;100.00;94603.09;5035560;28;20199;-59
2022/11/25 06:31:20;;;;;;;2.80;1.70;;;;;;;5.75;100.00;94622.06;5053538;28;20196;-59
2022/11/25 06:33:47;;;;;;;1.97;1.50;;;;;;;5.68;100.00;94629.22;5053791;28;20191;-63
2022/11/25 06:36:16;;;;;;;2.70;1.47;;;;;;;5.68;100.00;94615.78;5053545;28;20183;-62
2022/11/25 06:38:52;;;;;;;1.93;1.30;;;;;;;5.67;100.00;94635.19;5053630;28;20515;-62
2022/11/25 06:41:19;;;;;;;2.53;1.87;;;;;;;5.78;100.00;94652.09;5053466;28;20210;-63
2022/11/25 06:43:45;;;;;;;2.03;1.57;;;;;;;5.73;100.00;94659.19;5053639;28;20618;-60
2022/11/25 06:46:15;;;;;;;2.27;1.80;;;;;;;5.78;100.00;94659.66;5053408;28;20613;-59
2022/11/25 06:48:41;;;;;;;2.20;1.87;;;;;;;5.82;100.00;94679.53;5052070;28;20223;-62
2022/11/25 06:51:10;;;;;;;3.53;1.63;;;;;;;5.75;100.00;94664.94;5053305;28;20638;-63
2022/11/25 06:53:36;;;;;;;1.80;1.70;;;;;;;5.82;100.00;94674.50;5053465;28;20189;-62
2022/11/25 06:56:20;;;;;;;2.50;1.80;;;;;;;5.80;100.00;94671.28;5053106;28;20277;-62
2022/11/25 06:58:47;;;;;;;2.70;2.07;;;;;;;5.87;100.00;94664.97;5052911;28;20192;-63
2022/11/25 07:01:21;;;;;;;3.57;2.37;;;;;;;5.86;100.00;94670.09;5052965;28;20212;-63
2022/11/25 07:03:49;;;;;;;2.10;1.90;;;;;;;5.85;100.00;94663.44;5035371;28;20194;-63
2022/11/25 07:06:17;;;;;;;2.10;1.90;;;;;;;5.88;100.00;94658.19;5052629;28;20580;-63
2022/11/25 07:08:43;;;;;;;2.77;2.37;;;;;;;6.01;100.00;94663.22;5053037;28;20193;-63
2022/11/25 07:11:16;;;;;;;2.00;1.73;;;;;;;5.99;100.00;94670.09;5051683;28;20189;-62
2022/11/25 07:13:42;;;;;;;3.00;1.90;;;;;;;5.96;100.00;94668.56;5052720;28;20282;-59
2022/11/25 07:16:09;;;;;;;2.70;2.10;;;;;;;6.02;100.00;94685.81;5053056;28;20199;-63
2022/11/25 07:18:37;;;;;;;2.70;2.20;;;;;;;6.03;100.00;94681.59;5053327;28;20203;-59
2022/11/25 07:21:02;;;;;;;1.97;1.83;;;;;;;5.99;100.00;94678.47;5052568;28;20274;-63
2022/11/25 07:23:28;;;;;;;2.43;1.90;;;;;;;6.01;100.00;94683.41;5052974;28;20192;-63
2022/11/25 07:25:53;;;;;;;2.87;2.23;;;;;;;6.05;100.00;94670.50;5052600;28;20342;-60
2022/11/25 07:28:19;;;;;;;1.80;1.70;;;;;;;6.07;100.00;94698.94;5052795;28;20660;-65
2022/11/25 07:30:44;;;;;;;2.33;1.97;;;;;;;6.16;100.00;94693.28;5052662;28;20226;-63
2022/11/25 07:33:10;;;;;;;3.33;2.33;;;;;;;6.15;100.00;94696.72;5052791;28;20195;-59
2022/11/25 07:35:35;;;;;;;1.87;1.67;;;;;;;6.16;100.00;94705.88;5051850;28;20212;-63
2022/11/25 07:38:00;;;;;;;3.00;2.67;;;;;;;6.14;100.00;94702.66;5051888;28;20197;-64
2022/11/25 07:40:26;;;;;;;6.23;2.40;;;;;;;6.21;100.00;94680.34;5052534;28;20231;-63
2022/11/25 07:42:51;;;;;;;3.00;2.40;;;;;;;6.16;100.00;94698.31;5052367;28;20255;-63
2022/11/25 07:45:17;;;;;;;2.83;2.13;;;;;;;6.22;100.00;94713.06;5052367;28;20266;-61
2022/11/25 07:47:42;;;;;;;2.87;2.43;;;;;;;6.25;100.00;94712.84;5052462;28;20711;-62
2022/11/25 07:50:08;;;;;;;3.30;2.40;;;;;;;6.21;100.00;94716.50;5052446;28;20212;-62
2022/11/25 07:52:36;;;;;;;3.23;2.03;;;;;;;6.22;100.00;94710.53;5052227;28;20613;-63
2022/11/25 07:55:02;;;;;;;3.93;2.60;;;;;;;6.20;100.00;94727.50;5052187;28;20208;-63
2022/11/25 07:57:27;;;;;;;4.03;2.20;;;;;;;6.19;100.00;94728.41;5052215;28;20194;-63
2022/11/25 07:59:53;;;;;;;3.17;2.30;;;;;;;6.60;100.00;94746.66;5050164;28;20223;-63
2022/11/25 08:02:18;;;;;;;3.53;2.57;;;;;;;7.04;100.00;94808.50;5050950;28;20288;-62
2022/11/25 08:04:43;;;;;;;4.97;2.40;;;;;;;7.28;100.00;94842.19;5052069;28;20201;-63
2022/11/25 08:07:09;;;;;;;2.23;2.03;;;;;;;7.29;100.00;94866.56;5052003;28;20221;-62
2022/11/25 08:09:35;;;;;;;2.30;2.10;;;;;;;7.35;100.00;94872.00;5051897;28;20242;-64
2022/11/25 08:12:00;;;;;;;4.97;2.40;;;;;;;7.42;100.00;94870.69;5052017;28;20195;-63
2022/11/25 08:14:25;;;;;;;3.37;2.70;;;;;;;7.66;100.00;94896.00;5052066;28;20295;-64
2022/11/25 08:16:51;;;;;;;3.13;2.40;;;;;;;7.64;100.00;94887.69;5051773;28;20235;-63
2022/11/25 08:19:17;;;;;;;3.07;2.30;;;;;;;7.84;100.00;94912.41;5051817;28;20755;-60
2022/11/25 08:21:43;;;;;;;1.93;1.70;;;;;;;7.86;100.00;94932.59;5051709;28;20725;-63
2022/11/25 08:24:19;;;;;;;2.67;2.43;;;;;;;7.87;100.00;94911.41;5050089;28;20214;-63
2022/11/25 08:26:45;;;;;;;3.27;2.37;;;;;;;7.84;100.00;94909.09;5050069;28;20185;-63
2022/11/25 08:29:16;;;;;;;3.17;2.23;;;;;;;7.86;100.00;94903.00;5051687;28;20266;-63
2022/11/25 08:31:41;;;;;;;2.30;1.90;;;;;;;8.05;100.00;94923.59;5051908;28;20234;-59
2022/11/25 08:34:08;;;;;;;2.20;1.80;;;;;;;8.14;100.00;94943.19;5034067;28;20205;-63
2022/11/25 08:36:34;;;;;;;2.67;1.97;;;;;;;7.99;100.00;94915.59;5051965;28;20193;-64
2022/11/25 08:39:03;;;;;;;2.70;2.23;;;;;;;8.09;100.00;94912.31;5051652;28;20189;-59
2022/11/25 08:41:34;;;;;;;4.50;2.47;;;;;;;8.11;100.00;94905.44;5051620;28;20206;-62
2022/11/25 08:44:02;;;;;;;3.93;2.90;;;;;;;8.25;100.00;94907.81;5051501;28;20207;-60
2022/11/25 08:46:32;;;;;;;3.40;2.50;;;;;;;8.35;100.00;94918.09;5051540;28;20578;-63
2022/11/25 08:48:58;;;;;;;2.93;2.47;;;;;;;8.40;99.70;94932.03;5051522;28;20200;-63
2022/11/25 08:51:27;;;;;;;3.13;2.57;;;;;;;8.06;100.00;94891.50;5051437;28;20542;-65
2022/11/25 08:53:53;;;;;;;3.17;2.50;;;;;;;8.40;100.00;94921.13;5051674;28;20200;-63
2022/11/25 08:56:20;;;;;;;2.40;2.20;;;;;;;8.50;98.86;94946.59;5051332;28;20193;-62
2022/11/25 08:58:45;;;;;;;3.17;2.10;;;;;;;8.71;98.23;94952.63;5050075;28;20213;-59
2022/11/25 09:01:12;;;;;;;2.87;2.23;;;;;;;8.97;96.94;94976.88;5051382;28;20295;-64
2022/11/25 09:03:41;;;;;;;3.90;2.70;;;;;;;8.64;98.65;94938.78;5051456;28;20193;-59
2022/11/25 09:06:08;;;;;;;5.43;2.87;;;;;;;9.24;97.28;94945.22;5051551;28;20185;-63
2022/11/25 09:08:34;;;;;;;2.73;2.43;;;;;;;9.27;96.55;94957.69;5051672;28;20194;-63
2022/11/25 09:11:00;;;;;;;3.20;2.67;;;;;;;9.16;96.86;94970.38;5051026;28;20661;-63
2022/11/25 09:13:26;;;;;;;7.40;3.17;;;;;;;9.39;95.82;94968.66;5051460;28;20679;-63
2022/11/25 09:15:52;;;;;;;4.03;2.80;;;;;;;9.62;94.09;94990.56;5051100;28;20213;-65
2022/11/25 09:18:19;;;;;;;5.10;3.00;;;;;;;9.29;95.62;94958.38;5051314;28;20190;-63
2022/11/25 09:20:45;;;;;;;4.13;3.13;;;;;;;9.18;96.17;94942.34;5050988;28;20683;-63
2022/11/25 09:23:11;;;;;;;6.30;2.87;;;;;;;9.59;95.32;94962.88;5051327;28;20194;-63
2022/11/25 09:25:37;;;;;;;3.70;2.83;;;;;;;9.40;84.40;94960.09;5050997;28;20213;-63
2022/11/25 09:28:03;;;;;;;3.67;2.10;;;;;;;8.97;84.34;94934.59;5049376;28;20280;-63
2022/11/25 09:30:29;;;;;;;4.50;2.07;;;;;;;8.97;80.47;94916.84;5050755;28;20284;-61
2022/11/25 09:32:55;;;;;;;3.70;2.20;;;;;;;9.12;78.41;94919.97;5050872;28;20671;-63
2022/11/25 09:35:22;;;;;;;3.40;2.60;;;;;;;9.47;78.00;94930.00;5050915;28;20201;-62
2022/11/25 09:37:48;;;;;;;3.17;2.87;;;;;;;9.23;78.10;94922.53;5050926;28;20181;-62
2022/11/25 09:40:19;;;;;;;3.43;2.50;;;;;;;9.38;77.46;94943.38;5050769;28;20216;-64
2022/11/25 09:48:52;;;;;;;3.27;2.70;;;;;;;8.92;78.85;94890.22;5050721;28;20239;-63
2022/11/25 09:51:53;;;;;;;3.53;2.90;;;;;;;9.22;75.35;94947.06;5050758;28;20279;-63
2022/11/25 09:55:02;;;;;;;6.83;2.70;;;;;;;9.32;74.70;94972.56;5029005;28;20221;-64
2022/11/25 09:57:49;;;;;;;3.10;2.63;;;;;;;9.36;74.72;94961.25;5047895;28;20663;-60
2022/11/25 10:00:16;;;;;;;4.00;2.10;;;;;;;9.54;73.70;94972.56;5052615;28;20566;-63
2022/11/25 10:03:34;;;;;;;4.07;2.93;;;;;;;9.82;73.31;94983.97;5054166;28;20679;-63
2022/11/25 10:06:10;;;;;;;4.50;3.07;;;;;;;9.50;74.55;94945.81;5012809;28;20217;-64
2022/11/25 10:08:42;;;;;;;4.07;2.37;;;;;;;9.38;74.26;94934.03;5054358;28;20658;-63
2022/11/25 10:11:20;;;;;;;3.63;2.80;;;;;;;9.20;75.11;94920.22;5036633;28;20170;-63
2022/11/25 10:13:46;;;;;;;4.13;2.67;;;;;;;9.22;74.81;94936.13;5053867;28;20189;-59
2022/11/25 10:16:26;;;;;;;3.27;2.70;;;;;;;9.80;73.08;94979.00;5054084;28;20181;-61
2022/11/25 10:18:59;;;;;;;2.60;2.10;;;;;;;9.10;74.46;94930.25;5054297;28;20208;-65
2022/11/25 10:21:25;;;;;;;4.73;2.20;;;;;;;9.87;73.31;94974.28;5052488;28;20220;-60
2022/11/25 10:23:51;;;;;;;3.20;2.27;;;;;;;9.90;71.87;94999.41;5054022;28;20647;-63
2022/11/25 10:26:21;;;;;;;3.13;2.30;;;;;;;9.75;71.94;94983.63;5053800;28;20304;-64
2022/11/25 10:29:13;;;;;;;5.53;2.53;;;;;;;9.32;72.59;94965.75;5053936;28;20645;-62
2022/11/25 10:31:41;;;;;;;4.10;2.50;;;;;;;9.29;73.24;94944.91;5053704;28;20736;-62
2022/11/25 10:34:36;;;;;;;2.63;2.13;;;;;;;8.91;74.85;94917.28;5053846;28;20217;-62
2022/11/25 10:37:09;;;;;;;6.93;1.80;;;;;;;8.61;76.20;94878.19;5054051;28;20181;-58
2022/11/25 10:39:35;;;;;;;3.33;2.33;;;;;;;8.29;77.73;94861.09;5053697;28;20290;-65
2022/11/25 10:42:03;;;;;;;2.37;1.97;;;;;;;8.56;77.49;94854.94;5053431;28;20205;-64
2022/11/25 10:44:37;;;;;;;3.00;2.60;;;;;;;8.97;76.00;94913.50;5053654;28;20578;-60
2022/11/25 10:47:27;;;;;;;4.33;2.07;;;;;;;9.18;74.24;94935.53;5052094;28;20193;-64
2022/11/25 10:50:05;;;;;;;3.40;1.80;;;;;;;9.27;73.23;94985.56;5053196;28;20620;-60
2022/11/25 10:52:36;;;;;;;4.63;1.83;;;;;;;9.37;72.13;94975.56;5053438;28;20235;-61
2022/11/25 10:55:20;;;;;;;1.63;1.53;;;;;;;9.39;71.53;94988.94;5053164;28;20674;-62
2022/11/25 10:57:46;;;;;;;2.13;1.30;;;;;;;9.22;71.27;95007.94;5053553;28;20628;-60
2022/11/25 11:00:25;;;;;;;4.03;1.77;;;;;;;8.76;73.55;94951.41;5053130;28;20299;-62
2022/11/25 11:02:51;;;;;;;4.93;1.63;;;;;;;9.01;73.90;94930.09;5053589;28;20224;-64
2022/11/25 11:05:28;;;;;;;3.23;1.67;;;;;;;8.94;73.59;94927.22;5053182;28;20194;-62
2022/11/25 11:08:15;;;;;;;2.37;2.03;;;;;;;8.68;75.38;94925.81;5053367;28;20193;-63
2022/11/25 11:10:40;;;;;;;1.60;1.50;;;;;;;8.54;75.02;94909.97;5052606;28;20270;-62
2022/11/25 11:13:20;;;;;;;3.03;1.90;;;;;;;8.64;76.07;94905.84;5053341;28;20272;-63
2022/11/25 11:15:46;;;;;;;3.97;2.07;;;;;;;8.23;76.84;94878.41;5053100;28;20209;-64
2022/11/25 11:18:35;;;;;;;2.83;2.00;;;;;;;8.08;77.08;94855.00;5052957;28;20320;-64
2022/11/25 11:21:01;;;;;;;2.63;2.00;;;;;;;8.23;78.14;94840.44;5037225;28;20233;-64
2022/11/25 11:23:28;;;;;;;3.53;2.33;;;;;;;8.39;78.25;94851.91;5053109;28;20265;-64
2022/11/25 11:26:01;;;;;;;4.13;2.20;;;;;;;8.19;79.13;94827.19;5052627;28;20212;-62
2022/11/25 11:28:37;;;;;;;3.77;2.67;;;;;;;8.30;79.02;94864.44;5053182;28;20615;-62
2022/11/25 11:31:16;;;;;;;5.07;2.30;;;;;;;8.12;79.72;94828.53;5052655;28;20716;-62
2022/11/25 11:33:47;;;;;;;4.00;2.50;;;;;;;7.91;82.31;94807.31;5052723;28;20577;-59
2022/11/25 11:36:44;;;;;;;2.30;2.10;;;;;;;7.82;82.62;94777.59;5052923;28;20290;-63
2022/11/25 11:40:02;;;;;;;1.70;1.60;;;;;;;7.68;83.71;94772.72;5052749;28;20210;-62
2022/11/25 11:42:39;;;;;;;2.20;1.93;;;;;;;7.70;83.74;94775.94;4929339;28;20221;-63
2022/11/25 11:45:14;;;;;;;2.70;2.20;;;;;;;7.79;84.49;94772.78;5052385;28;20213;-63
2022/11/25 11:48:07;;;;;;;2.50;2.00;;;;;;;7.79;84.11;94771.97;5052534;28;20696;-64
2022/11/25 11:50:36;;;;;;;4.13;2.40;;;;;;;7.91;83.78;94774.44;5052581;28;20245;-61
2022/11/25 11:53:16;;;;;;;4.13;2.30;;;;;;;8.19;82.29;94793.47;5052773;28;20194;-64
2022/11/25 11:56:03;;;;;;;3.37;2.17;;;;;;;8.57;79.65;94851.47;5052264;28;20209;-63
2022/11/25 11:58:47;;;;;;;2.00;1.80;;;;;;;8.56;78.76;94870.94;5034656;28;20201;-64